Ellendale, North Carolina
Current Conditions -  °F | °C
As of 6:53 PM on Saturday 22 Nov 2014 (Local Time) from KHKY Reporting Station
Clear Clear  
Wind Chill:   Ceiling: Unl
Heat Index:   Visibility: 10mi
Dew Point: -8°   Wind: 0mph
Humidity: 35%   Direction: NA
Pressure: 30.34"   Gusts: NA
Location:  35.9243°N, 81.216°W
Report Text: KHKY 222353Z AUTO 00000KT 10SM CLR 07/M08 A3034 RMK AO2 SLP271 T00671078 10117 20067 55008
Loading
Personal Weather Stations






























Interactive Weather Map New forecast layout! Learn more

10-Day Weather Forecast

Advertisements
Track Severe Weather on mobile